logo
Search for airport 
image banner adimage banner adimage banner ad
image banner ad

YWYT - Wayatinah

Located in Wayatinah, Australia

ICAO - , IATA -

Data provided by Airmate  

General information

Coordinates: S42°23'18" E146°30'4"
Elevation is 954 feet MSL.
Magnetic variation is 14° East
View others Airports in Tasmania

Operational data

Special qualification required
Current time UTC:
Current local time:
Weather at : - ( 0 km )
METAR: LMML 140445Z 06010KT 040V100 CAVOK 17/16 Q1022 NOSIG
View NOTAMs / SUP AIP / TFR affecting this airport [VIEW]
Communications frequencies: [VIEW]

Runways:

Airport contact information

Address: Wayatinah Australia

Satellite view of YWYT